createdAt,value
2023-05-16T00:00:15.110Z,13.3
2023-05-16T00:05:36.683Z,13.3
2023-05-16T00:11:12.906Z,13.3
2023-05-16T00:16:48.799Z,13.2
2023-05-16T00:22:40.883Z,13.1
2023-05-16T00:28:33.254Z,13
2023-05-16T00:34:10.082Z,12.9
2023-05-16T00:40:03.954Z,12.9
2023-05-16T00:45:55.717Z,12.9
2023-05-16T00:51:31.236Z,12.8
2023-05-16T00:57:22.720Z,12.8
2023-05-16T01:03:15.297Z,12.8
2023-05-16T01:09:07.574Z,12.7
2023-05-16T01:14:13.004Z,12.6
2023-05-16T01:20:06.119Z,12.6
2023-05-16T01:25:57.387Z,12.6
2023-05-16T01:31:48.198Z,12.6
2023-05-16T01:37:24.730Z,12.6
2023-05-16T01:43:00.926Z,12.5
2023-05-16T01:48:53.536Z,12.4
2023-05-16T01:54:29.709Z,12.3
2023-05-16T02:00:21.616Z,12.2
2023-05-16T02:06:13.872Z,12.1
2023-05-16T02:12:05.777Z,11.9
2023-05-16T02:17:42.256Z,11.9
2023-05-16T02:23:03.416Z,11.8
2023-05-16T02:28:55.536Z,11.7
2023-05-16T02:34:31.732Z,11.6
2023-05-16T02:40:07.942Z,11.5
2023-05-16T02:45:47.148Z,11.4
2023-05-16T02:51:23.696Z,11.4
2023-05-16T02:57:19.537Z,11.3
2023-05-16T03:02:56.139Z,11.3
2023-05-16T03:08:34.857Z,11.2
2023-05-16T03:14:11.688Z,11.2
2023-05-16T03:19:33.597Z,11.1
2023-05-16T03:25:09.374Z,11.1
2023-05-16T03:30:33.561Z,11.1
2023-05-16T03:35:39.499Z,11.1
2023-05-16T03:40:59.702Z,11.1
2023-05-16T03:46:36.296Z,11.2
2023-05-16T03:52:13.161Z,11.2
2023-05-16T03:57:34.138Z,11.2
2023-05-16T04:03:12.452Z,11.3
2023-05-16T04:08:52.166Z,11.3
2023-05-16T04:14:11.883Z,11.3
2023-05-16T04:19:48.231Z,11.4
2023-05-16T04:25:25.139Z,11.4
2023-05-16T04:31:02.427Z,11.4
2023-05-16T04:36:25.793Z,11.5
2023-05-16T04:42:02.220Z,11.6
2023-05-16T04:47:40.705Z,11.7
2023-05-16T04:53:16.468Z,11.8
2023-05-16T04:58:52.704Z,11.8
2023-05-16T05:04:28.225Z,11.9
2023-05-16T05:10:04.520Z,12
2023-05-16T05:15:41.055Z,12.1
2023-05-16T05:21:17.917Z,12.1
2023-05-16T05:26:54.767Z,12.3
2023-05-16T05:32:47.054Z,12.3
2023-05-16T05:38:39.005Z,12.4
2023-05-16T05:44:16.065Z,12.5
2023-05-16T05:49:52.934Z,12.7
2023-05-16T05:55:29.508Z,13
2023-05-16T06:01:06.313Z,13.3
2023-05-16T06:06:59.960Z,13.4
2023-05-16T06:12:08.116Z,13.7
2023-05-16T06:17:29.941Z,13.9
2023-05-16T06:23:07.014Z,14.2
2023-05-16T06:28:11.728Z,14.4
2023-05-16T06:33:32.397Z,14.6
2023-05-16T06:39:11.166Z,14.9
2023-05-16T06:44:32.533Z,15.1
2023-05-16T06:49:40.547Z,15.3
2023-05-16T06:55:01.562Z,15.5
2023-05-16T07:00:23.105Z,15.8
2023-05-16T07:06:00.725Z,16.3
2023-05-16T07:11:37.643Z,16.8
2023-05-16T07:17:00.200Z,17.2
2023-05-16T07:22:40.945Z,17.7
2023-05-16T07:28:03.929Z,18.2
2023-05-16T07:33:25.383Z,18.8
2023-05-16T07:38:55.087Z,19.4
2023-05-16T07:44:16.150Z,19.9
2023-05-16T07:49:37.413Z,20.4
2023-05-16T07:55:29.531Z,20.9
2023-05-16T08:01:22.548Z,21.5
2023-05-16T08:07:00.369Z,22
2023-05-16T08:12:52.233Z,22.5
2023-05-16T08:18:44.519Z,23
2023-05-16T08:24:05.591Z,23.8
2023-05-16T08:29:27.635Z,24.6
2023-05-16T08:35:06.165Z,25.6
2023-05-16T08:40:42.815Z,26.4
2023-05-16T08:46:20.162Z,27.1
2023-05-16T08:51:57.564Z,27.7
2023-05-16T08:57:46.607Z,28.8
2023-05-16T09:03:25.854Z,30.3
2023-05-16T09:09:02.976Z,31.8
2023-05-16T09:14:39.337Z,32.6
2023-05-16T09:20:29.885Z,32.9
2023-05-16T09:26:20.950Z,32.5
2023-05-16T09:31:56.991Z,32
2023-05-16T09:37:32.446Z,31.6
2023-05-16T09:42:53.452Z,31.4
2023-05-16T09:48:29.865Z,31.6
2023-05-16T09:54:06.954Z,32
2023-05-16T09:59:43.801Z,32.9
2023-05-16T10:05:25.339Z,34.4
2023-05-16T10:11:04.406Z,36.1
2023-05-16T10:16:27.326Z,37.5
2023-05-16T10:22:06.760Z,38.1
2023-05-16T10:27:59.491Z,37.2
2023-05-16T10:33:38.071Z,36
2023-05-16T10:38:57.945Z,34.8
2023-05-16T10:44:19.441Z,33.6
2023-05-16T10:50:10.812Z,32.6
2023-05-16T10:56:02.700Z,31.9
2023-05-16T11:01:40.486Z,31.4
2023-05-16T11:07:20.382Z,30.8
2023-05-16T11:13:14.820Z,30.1
2023-05-16T11:18:54.517Z,29.5
2023-05-16T11:24:31.499Z,28.6
2023-05-16T11:29:37.118Z,27.9
2023-05-16T11:35:15.272Z,27.3
2023-05-16T11:41:17.833Z,26.9
2023-05-16T11:47:10.243Z,26.4
2023-05-16T11:52:59.832Z,26.1
2023-05-16T11:59:06.512Z,26.1
2023-05-16T12:04:59.846Z,26.2
2023-05-16T12:10:53.109Z,27.8
2023-05-16T12:16:30.999Z,30.1
2023-05-16T12:22:24.502Z,31.6
2023-05-16T12:28:03.295Z,32.4
2023-05-16T12:33:38.808Z,32.9
2023-05-16T12:38:59.550Z,32.8
2023-05-16T12:44:54.978Z,32.3
2023-05-16T12:50:32.429Z,31.4
2023-05-16T12:56:40.182Z,30.2
2023-05-16T13:02:17.606Z,29.4
2023-05-16T13:07:55.240Z,28.8
2023-05-16T13:13:22.213Z,28.1
2023-05-16T13:19:04.298Z,27.5
2023-05-16T13:24:41.911Z,26.8
2023-05-16T13:30:19.706Z,26.2
2023-05-16T13:35:42.316Z,25.6
2023-05-16T13:41:04.871Z,25
2023-05-16T13:46:26.084Z,24.6
2023-05-16T13:52:04.271Z,24.3
2023-05-16T13:57:42.396Z,23.8
2023-05-16T14:03:55.227Z,23.2
2023-05-16T14:09:34.261Z,22.9
2023-05-16T14:15:11.714Z,22.5
2023-05-16T14:20:49.005Z,22.1
2023-05-16T14:26:26.854Z,21.8
2023-05-16T14:32:03.746Z,21.6
2023-05-16T14:37:40.380Z,21.4
2023-05-16T14:43:21.119Z,21.5
2023-05-16T14:49:00.383Z,21.4
2023-05-16T15:00:03.709Z,20.8
2023-05-16T15:05:14.296Z,20.4
2023-05-16T15:10:53.499Z,19.9
2023-05-16T15:16:31.377Z,19.6
2023-05-16T15:22:12.529Z,19.4
2023-05-16T15:27:51.118Z,19.1
2023-05-16T15:33:29.354Z,18.9
2023-05-16T15:45:00.812Z,18.6
2023-05-16T15:50:23.410Z,18.4
2023-05-16T15:56:19.510Z,18.3
2023-05-16T16:01:55.845Z,18.1
2023-05-16T16:07:03.572Z,17.9
2023-05-16T16:12:26.571Z,17.9
2023-05-16T16:18:05.952Z,17.8
2023-05-16T16:23:14.315Z,17.6
2023-05-16T16:28:37.792Z,17.6
2023-05-16T16:34:14.978Z,17.4
2023-05-16T16:40:08.653Z,17.3
2023-05-16T16:45:30.617Z,17.3
2023-05-16T16:50:53.293Z,17.3
2023-05-16T16:56:32.090Z,17.2
2023-05-16T17:02:09.717Z,17.1
2023-05-16T17:12:54.519Z,16.9
2023-05-16T17:18:34.593Z,16.8
2023-05-16T17:23:56.565Z,16.7
2023-05-16T17:29:18.649Z,16.7
2023-05-16T17:34:39.996Z,16.6
2023-05-16T17:40:01.464Z,16.6
2023-05-16T17:45:55.027Z,16.4
2023-05-16T17:51:03.439Z,16.4
2023-05-16T17:56:40.758Z,16.3
2023-05-16T18:02:02.926Z,16.1
2023-05-16T18:07:28.513Z,16.1
2023-05-16T18:13:07.815Z,15.9
2023-05-16T18:18:29.993Z,15.9
2023-05-16T18:24:07.920Z,15.8
2023-05-16T18:29:45.069Z,15.6
2023-05-16T18:34:53.540Z,15.6
2023-05-16T18:40:34.271Z,15.5
2023-05-16T18:45:55.072Z,15.4
2023-05-16T18:51:18.211Z,15.4
2023-05-16T18:56:40.895Z,15.3
2023-05-16T19:02:18.002Z,15.4
2023-05-16T19:07:38.549Z,15.4
2023-05-16T19:13:34.682Z,15.4
2023-05-16T19:18:41.614Z,15.4
2023-05-16T19:23:50.265Z,15.4
2023-05-16T19:28:57.837Z,15.4
2023-05-16T19:34:38.766Z,15.4
2023-05-16T19:40:17.623Z,15.4
2023-05-16T19:46:12.404Z,15.5
2023-05-16T19:51:29.761Z,15.6
2023-05-16T19:57:01.032Z,15.6
2023-05-16T20:02:26.360Z,15.6
2023-05-16T20:07:50.631Z,15.5
2023-05-16T20:13:16.070Z,15.5
2023-05-16T20:18:54.659Z,15.4
2023-05-16T20:24:17.607Z,15.5
2023-05-16T20:29:54.538Z,15.4
2023-05-16T20:35:17.292Z,15.3
2023-05-16T20:40:06.786Z,15.1
2023-05-16T20:44:58.447Z,14.9
2023-05-16T20:50:20.475Z,14.8
2023-05-16T20:55:26.193Z,14.6
2023-05-16T21:00:16.719Z,14.5
2023-05-16T21:05:58.010Z,14.4
2023-05-16T21:11:04.996Z,14.3
2023-05-16T21:16:26.932Z,14.1
2023-05-16T21:21:34.899Z,14
2023-05-16T21:27:11.595Z,13.9
2023-05-16T21:32:42.317Z,13.8
2023-05-16T21:37:49.672Z,13.7
2023-05-16T21:43:25.821Z,13.6
2023-05-16T21:49:03.217Z,13.6
2023-05-16T21:54:27.071Z,13.5
2023-05-16T21:59:48.079Z,13.4
2023-05-16T22:04:55.897Z,13.4
2023-05-16T22:10:02.727Z,13.3
2023-05-16T22:15:24.840Z,13.3
2023-05-16T22:20:24.608Z,13.2
2023-05-16T22:25:15.231Z,13.2
2023-05-16T22:30:37.319Z,13.1
2023-05-16T22:36:00.109Z,13.1
2023-05-16T22:41:20.854Z,13.1
2023-05-16T22:46:42.576Z,13
2023-05-16T22:52:05.139Z,12.9
2023-05-16T22:57:41.777Z,12.9
2023-05-16T23:02:47.508Z,12.9
2023-05-16T23:07:23.513Z,12.9
2023-05-16T23:12:29.335Z,12.8
2023-05-16T23:17:34.205Z,12.8
2023-05-16T23:22:57.853Z,12.8
2023-05-16T23:28:03.411Z,12.8
2023-05-16T23:33:39.745Z,12.8
2023-05-16T23:39:03.766Z,12.8
2023-05-16T23:44:24.606Z,12.7
2023-05-16T23:49:45.981Z,12.6
2023-05-16T23:55:38.867Z,12.6
